Time;durP1;ratioP1;P1;durP2;ratioP2;P2;SDS_P1;SDS_P2;PMS_P1;PMS_P2;Temp;Humidity;BMP_temperature;BMP_pressure;BME280_temperature;BME280_humidity;BME280_pressure;Samples;Min_cycle;Max_cycle;Signal;HPM_P1;HPM_P2
2022/08/21 00:00:45;;;;;;;98.07;46.53;;;18.10;99.90;;;;;;2083328;28;20051;-76
2022/08/21 00:01:46;;;;;;;95.20;44.83;;;18.10;99.90;;;;;;2082315;28;20028;-76
2022/08/21 00:02:50;;;;;;;92.72;42.67;;;18.10;99.90;;;;;;2083504;28;20029;-76
2022/08/21 00:03:50;;;;;;;73.20;39.20;;;18.10;99.90;;;;;;2090531;28;20021;-76
2022/08/21 00:04:52;;;;;;;82.97;41.97;;;18.10;99.90;;;;;;2069858;28;20129;-76
2022/08/21 00:05:53;;;;;;;89.10;43.42;;;18.10;99.90;;;;;;2065661;28;20113;-76
2022/08/21 00:06:53;;;;;;;104.90;45.42;;;18.10;99.90;;;;;;2082185;28;20519;-76
2022/08/21 00:07:54;;;;;;;114.82;49.65;;;18.10;99.90;;;;;;2090833;28;20047;-76
2022/08/21 00:08:55;;;;;;;116.97;49.88;;;18.10;99.90;;;;;;2074313;28;20022;-76
2022/08/21 00:09:56;;;;;;;102.20;46.78;;;18.10;99.90;;;;;;2073948;28;20029;-76
2022/08/21 00:10:57;;;;;;;80.65;43.83;;;18.10;99.90;;;;;;2081844;28;20120;-76
2022/08/21 00:11:57;;;;;;;95.10;44.42;;;18.10;99.90;;;;;;2081614;28;20030;-76
2022/08/21 00:13:00;;;;;;;92.20;44.30;;;18.10;99.90;;;;;;2082516;28;20112;-76
2022/08/21 00:14:01;;;;;;;100.80;46.67;;;18.10;99.90;;;;;;2091400;28;20028;-76
2022/08/21 00:15:04;;;;;;;97.15;45.05;;;18.10;99.90;;;;;;2090613;28;20049;-76
2022/08/21 00:16:05;;;;;;;105.05;47.45;;;18.10;99.90;;;;;;2082546;28;20025;-77
2022/08/21 00:17:06;;;;;;;103.32;46.72;;;18.10;99.90;;;;;;2082776;28;20537;-76
2022/08/21 00:18:10;;;;;;;129.77;52.38;;;18.10;99.90;;;;;;2074315;28;20023;-76
2022/08/21 00:19:11;;;;;;;124.68;54.25;;;18.10;99.90;;;;;;2082573;28;20040;-77
2022/08/21 00:20:14;;;;;;;101.78;49.20;;;18.10;99.90;;;;;;2082324;28;20749;-76
2022/08/21 00:21:16;;;;;;;98.35;46.38;;;18.10;99.90;;;;;;2082576;28;20045;-76
2022/08/21 00:22:17;;;;;;;110.88;49.63;;;18.10;99.90;;;;;;2081861;28;20126;-75
2022/08/21 00:23:17;;;;;;;100.25;45.30;;;18.10;99.90;;;;;;2082161;28;20028;-75
2022/08/21 00:24:19;;;;;;;95.20;44.80;;;18.10;99.90;;;;;;2082108;28;20049;-75
2022/08/21 00:25:21;;;;;;;112.40;49.28;;;18.10;99.90;;;;;;2081827;28;20384;-75
2022/08/21 00:26:22;;;;;;;132.93;54.33;;;18.10;99.90;;;;;;2073867;28;20057;-76
2022/08/21 00:27:22;;;;;;;104.32;48.58;;;18.10;99.90;;;;;;2065793;28;20022;-76
2022/08/21 00:28:23;;;;;;;91.13;44.97;;;18.10;99.90;;;;;;2082284;28;20044;-76
2022/08/21 00:29:24;;;;;;;100.63;46.13;;;18.10;99.90;;;;;;2082182;28;20045;-76
2022/08/21 00:30:26;;;;;;;81.35;42.75;;;18.10;99.90;;;;;;2082066;28;20120;-77
2022/08/21 00:31:26;;;;;;;92.75;43.35;;;18.10;99.90;;;;;;2090326;28;20033;-77
2022/08/21 00:32:28;;;;;;;83.25;41.97;;;18.20;99.90;;;;;;2082579;28;20026;-77
2022/08/21 00:33:28;;;;;;;86.65;42.95;;;18.20;99.90;;;;;;2081935;28;20400;-76
2022/08/21 00:34:29;;;;;;;88.68;40.80;;;18.20;99.90;;;;;;2081795;28;20034;-77
2022/08/21 00:35:33;;;;;;;83.22;40.88;;;18.20;99.90;;;;;;2082315;28;20056;-77
2022/08/21 00:36:35;;;;;;;128.25;50.03;;;18.20;99.90;;;;;;2090123;28;20033;-77
2022/08/21 00:37:36;;;;;;;90.20;44.53;;;18.20;99.90;;;;;;2083235;28;20037;-76
2022/08/21 00:38:37;;;;;;;83.70;42.13;;;18.20;99.90;;;;;;2082385;28;20387;-76
2022/08/21 00:39:37;;;;;;;83.72;42.08;;;18.20;99.90;;;;;;2081732;28;20045;-76
2022/08/21 00:40:50;;;;;;;88.00;42.47;;;18.20;99.90;;;;;;2082102;28;20140;-77
2022/08/21 00:41:50;;;;;;;87.43;44.72;;;18.20;99.90;;;;;;2081892;28;20025;-77
2022/08/21 00:42:51;;;;;;;105.63;48.30;;;18.20;99.90;;;;;;2081755;28;20021;-76
2022/08/21 00:43:52;;;;;;;111.40;50.67;;;18.20;99.90;;;;;;2082886;28;20606;-77
2022/08/21 00:44:53;;;;;;;97.40;48.40;;;18.20;99.90;;;;;;2081879;28;20026;-77
2022/08/21 00:45:55;;;;;;;97.00;48.13;;;18.10;99.90;;;;;;2082123;28;20550;-77
2022/08/21 00:46:56;;;;;;;103.88;48.25;;;18.20;99.90;;;;;;2090201;28;20029;-76
2022/08/21 00:47:56;;;;;;;97.75;47.53;;;18.20;99.90;;;;;;2090280;28;20025;-77
2022/08/21 00:48:57;;;;;;;123.28;51.83;;;18.20;99.90;;;;;;2082328;28;20028;-76
2022/08/21 00:49:58;;;;;;;116.82;51.63;;;18.10;99.90;;;;;;2082110;28;20468;-77
2022/08/21 00:51:03;;;;;;;153.73;59.10;;;18.10;99.90;;;;;;2073539;28;20061;-76
2022/08/21 00:52:06;;;;;;;153.52;58.28;;;18.10;99.90;;;;;;2082184;28;20021;-77
2022/08/21 00:53:09;;;;;;;122.68;54.55;;;18.10;99.90;;;;;;2083027;28;20032;-77
2022/08/21 00:54:11;;;;;;;115.25;52.83;;;18.10;99.90;;;;;;2082684;28;20032;-77
2022/08/21 00:55:13;;;;;;;126.35;53.88;;;18.20;99.90;;;;;;2081990;28;20109;-76
2022/08/21 00:56:14;;;;;;;115.47;52.97;;;18.20;99.90;;;;;;2074000;28;20172;-77
2022/08/21 00:57:24;;;;;;;171.95;61.53;;;18.10;99.90;;;;;;2065619;28;20035;-77
2022/08/21 00:58:27;;;;;;;105.47;50.47;;;18.10;99.90;;;;;;2068338;28;20532;-77
2022/08/21 00:59:33;;;;;;;124.53;55.40;;;18.20;99.90;;;;;;2073974;28;20061;-78
2022/08/21 01:00:38;;;;;;;150.20;58.97;;;18.20;99.90;;;;;;2073880;28;20029;-76
2022/08/21 01:01:38;;;;;;;214.43;65.40;;;18.20;99.90;;;;;;2081354;28;20041;-76
2022/08/21 01:02:39;;;;;;;143.93;60.25;;;18.10;99.90;;;;;;2081073;28;20017;-76
2022/08/21 01:03:40;;;;;;;125.43;57.45;;;18.10;99.90;;;;;;2081843;28;20017;-77
2022/08/21 01:04:41;;;;;;;114.38;55.42;;;18.20;99.90;;;;;;2080954;28;20044;-76
2022/08/21 01:05:43;;;;;;;142.98;60.85;;;18.10;99.90;;;;;;2081758;28;20018;-76
2022/08/21 01:06:44;;;;;;;106.28;55.65;;;18.10;99.90;;;;;;2081317;28;20025;-75
2022/08/21 01:07:45;;;;;;;213.05;69.38;;;18.20;99.90;;;;;;2073631;28;20100;-76
2022/08/21 01:08:46;;;;;;;117.15;60.33;;;18.10;99.90;;;;;;2073109;28;20021;-76
2022/08/21 01:09:48;;;;;;;115.72;58.63;;;18.10;99.90;;;;;;2065278;28;20026;-76
2022/08/21 01:10:49;;;;;;;219.38;68.65;;;18.10;99.90;;;;;;2073837;28;20068;-76
2022/08/21 01:11:50;;;;;;;129.77;59.63;;;18.10;99.90;;;;;;2081773;28;20025;-76
2022/08/21 01:12:54;;;;;;;128.68;58.55;;;18.00;99.90;;;;;;2072966;28;20548;-75
2022/08/21 01:13:55;;;;;;;108.93;55.30;;;18.00;99.90;;;;;;2081088;28;20031;-76
2022/08/21 01:14:56;;;;;;;118.50;58.58;;;18.00;99.90;;;;;;2080273;28;20029;-77
2022/08/21 01:15:59;;;;;;;93.00;51.72;;;18.00;99.90;;;;;;2072711;28;20055;-77
2022/08/21 01:17:02;;;;;;;227.32;58.83;;;18.00;99.90;;;;;;2080873;28;20022;-77
2022/08/21 01:18:07;;;;;;;89.55;48.05;;;18.00;99.90;;;;;;2079902;28;20024;-74
2022/08/21 01:19:08;;;;;;;78.63;42.15;;;17.90;99.90;;;;;;2072701;28;20036;-76
2022/08/21 01:20:11;;;;;;;79.20;42.53;;;17.90;99.90;;;;;;2080753;28;20113;-76
2022/08/21 01:21:18;;;;;;;70.35;40.63;;;17.90;99.90;;;;;;2080918;28;20125;-76
2022/08/21 01:22:19;;;;;;;68.18;38.53;;;17.90;99.90;;;;;;2080771;28;20037;-77
2022/08/21 01:23:20;;;;;;;77.30;39.85;;;17.80;99.90;;;;;;2081431;28;20061;-77
2022/08/21 01:24:21;;;;;;;75.47;36.67;;;17.70;99.90;;;;;;2081282;28;20033;-77
2022/08/21 01:25:22;;;;;;;129.65;41.95;;;17.70;99.90;;;;;;2081650;28;20061;-76
2022/08/21 01:26:35;;;;;;;53.78;32.67;;;17.60;99.90;;;;;;2081487;28;20041;-76
2022/08/21 01:27:36;;;;;;;55.88;31.30;;;17.60;99.90;;;;;;2080556;28;20029;-75
2022/08/21 01:28:51;;;;;;;47.90;28.48;;;17.50;99.90;;;;;;2072320;28;20484;-75
2022/08/21 01:30:03;;;;;;;51.83;27.45;;;17.50;99.90;;;;;;2074420;28;20034;-76
2022/08/21 01:31:07;;;;;;;40.80;26.35;;;17.40;99.90;;;;;;2074264;28;20057;-76
2022/08/21 01:32:12;;;;;;;51.72;28.10;;;17.50;99.90;;;;;;2080901;28;20057;-77
2022/08/21 01:33:12;;;;;;;60.95;31.40;;;17.40;99.90;;;;;;2081300;28;20017;-76
2022/08/21 01:34:15;;;;;;;52.58;29.80;;;17.40;99.90;;;;;;2080878;28;20030;-75
2022/08/21 01:35:18;;;;;;;52.95;29.10;;;17.40;99.90;;;;;;2081812;28;20396;-77
2022/08/21 01:36:19;;;;;;;45.22;27.23;;;17.40;99.90;;;;;;2081145;28;20068;-77
2022/08/21 01:37:21;;;;;;;69.13;31.58;;;17.40;99.90;;;;;;2073030;28;20499;-77
2022/08/21 01:38:22;;;;;;;46.60;28.40;;;17.40;99.90;;;;;;2073129;28;20071;-77
2022/08/21 01:39:23;;;;;;;64.78;30.33;;;17.40;99.90;;;;;;2072942;28;20034;-75
2022/08/21 01:40:23;;;;;;;44.78;27.80;;;17.40;99.90;;;;;;2072468;28;20463;-77
2022/08/21 01:41:24;;;;;;;40.92;25.33;;;17.40;99.90;;;;;;2081076;28;20116;-75
2022/08/21 01:42:25;;;;;;;42.65;26.05;;;17.40;99.90;;;;;;2081481;28;20560;-77
2022/08/21 01:43:26;;;;;;;40.85;24.13;;;17.40;99.90;;;;;;2080896;28;20395;-79
2022/08/21 01:44:27;;;;;;;38.75;23.45;;;17.40;99.90;;;;;;2072635;28;20037;-77
2022/08/21 01:45:27;;;;;;;40.28;22.65;;;17.40;99.90;;;;;;2080887;28;20025;-76
2022/08/21 01:46:28;;;;;;;36.75;21.27;;;17.40;99.90;;;;;;2081302;28;20109;-77
2022/08/21 01:47:29;;;;;;;54.40;28.13;;;17.40;99.90;;;;;;2081161;28;20443;-77
2022/08/21 01:48:30;;;;;;;46.08;26.15;;;17.40;99.90;;;;;;2080212;28;20157;-76
2022/08/21 01:49:30;;;;;;;45.42;25.70;;;17.40;99.90;;;;;;2064160;28;20697;-76
2022/08/21 01:50:31;;;;;;;34.50;22.23;;;17.40;99.90;;;;;;2055972;28;20037;-76
2022/08/21 01:51:32;;;;;;;38.35;23.60;;;17.40;99.90;;;;;;2072614;28;20049;-77
2022/08/21 01:52:33;;;;;;;47.40;25.90;;;17.40;99.90;;;;;;2072942;28;20022;-77
2022/08/21 01:53:36;;;;;;;51.78;26.77;;;17.40;99.90;;;;;;2080955;28;20036;-76
2022/08/21 01:54:38;;;;;;;49.38;28.33;;;17.40;99.90;;;;;;2080769;28;20024;-77
2022/08/21 01:55:39;;;;;;;44.38;26.67;;;17.50;99.90;;;;;;2081391;28;20030;-77
2022/08/21 01:56:43;;;;;;;50.53;27.65;;;17.50;99.90;;;;;;2080561;28;20041;-78
2022/08/21 01:57:45;;;;;;;48.15;26.98;;;17.50;99.90;;;;;;2072390;28;20029;-76
2022/08/21 01:58:46;;;;;;;43.05;24.83;;;17.50;99.90;;;;;;2065022;28;20027;-78
2022/08/21 01:59:47;;;;;;;45.50;24.65;;;17.50;99.90;;;;;;2080937;28;20059;-77
2022/08/21 02:00:49;;;;;;;38.55;23.33;;;17.50;99.90;;;;;;2081612;28;20044;-76
2022/08/21 02:01:55;;;;;;;36.40;21.92;;;17.50;99.90;;;;;;2081284;28;20080;-76
2022/08/21 02:02:55;;;;;;;35.30;21.20;;;17.50;99.90;;;;;;2080693;28;20120;-77
2022/08/21 02:03:56;;;;;;;34.33;21.13;;;17.50;99.90;;;;;;2080916;28;20038;-77
2022/08/21 02:04:57;;;;;;;33.40;20.30;;;17.50;99.90;;;;;;2071813;28;20030;-75
2022/08/21 02:05:57;;;;;;;30.30;19.20;;;17.50;99.90;;;;;;2080304;28;20068;-77
2022/08/21 02:06:59;;;;;;;25.23;17.55;;;17.50;99.90;;;;;;2072063;28;20602;-76
2022/08/21 02:08:01;;;;;;;25.90;17.88;;;17.50;99.90;;;;;;2072563;28;20493;-76
2022/08/21 02:09:04;;;;;;;29.05;18.48;;;17.50;99.90;;;;;;2081198;28;20040;-76
2022/08/21 02:10:08;;;;;;;25.70;16.83;;;17.50;99.90;;;;;;2080617;28;20030;-76
2022/08/21 02:11:08;;;;;;;27.75;17.25;;;17.60;99.90;;;;;;2072346;28;20026;-75
2022/08/21 02:12:10;;;;;;;25.73;17.13;;;17.50;99.90;;;;;;2072338;28;20064;-75
2022/08/21 02:13:11;;;;;;;27.25;17.50;;;17.50;99.90;;;;;;2080219;28;20136;-77
2022/08/21 02:14:14;;;;;;;25.35;17.00;;;17.50;99.90;;;;;;2071856;28;20405;-77
2022/08/21 02:15:16;;;;;;;22.45;16.00;;;17.50;99.90;;;;;;2072279;28;20068;-76
2022/08/21 02:16:17;;;;;;;25.98;17.27;;;17.50;99.90;;;;;;2079777;28;20025;-76
2022/08/21 02:17:18;;;;;;;22.55;16.25;;;17.50;99.90;;;;;;2072144;28;20085;-75
2022/08/21 02:18:18;;;;;;;24.95;16.10;;;17.50;99.90;;;;;;2080019;28;20037;-75
2022/08/21 02:19:19;;;;;;;22.23;15.75;;;17.50;99.90;;;;;;2080544;28;20116;-76
2022/08/21 02:20:33;;;;;;;24.38;15.98;;;17.50;99.90;;;;;;2071813;28;20026;-78
2022/08/21 02:21:33;;;;;;;24.60;16.88;;;17.50;99.90;;;;;;2080888;28;20037;-76
2022/08/21 02:22:34;;;;;;;25.95;17.77;;;17.50;99.90;;;;;;2081801;28;20083;-75
2022/08/21 02:23:35;;;;;;;24.65;16.88;;;17.50;99.90;;;;;;2072916;28;20026;-75
2022/08/21 02:24:37;;;;;;;28.25;17.75;;;17.50;99.90;;;;;;2079930;28;20124;-76
2022/08/21 02:25:38;;;;;;;24.13;16.17;;;17.50;99.90;;;;;;2081103;28;20048;-77
2022/08/21 02:26:39;;;;;;;22.25;16.25;;;17.50;99.90;;;;;;2081359;28;20025;-76
2022/08/21 02:27:41;;;;;;;24.42;16.10;;;17.50;99.90;;;;;;2072982;28;20026;-77
2022/08/21 02:28:43;;;;;;;28.92;17.63;;;17.50;99.90;;;;;;2072595;28;20018;-77
2022/08/21 02:29:43;;;;;;;28.23;17.38;;;17.50;99.90;;;;;;2080870;28;20573;-77
2022/08/21 02:30:48;;;;;;;26.75;17.67;;;17.50;99.90;;;;;;2081249;28;20052;-77
2022/08/21 02:31:48;;;;;;;27.13;17.20;;;17.50;99.90;;;;;;2072065;28;20049;-77
2022/08/21 02:32:49;;;;;;;24.88;16.92;;;17.50;99.90;;;;;;2063754;28;20030;-76
2022/08/21 02:33:51;;;;;;;25.20;16.80;;;17.50;99.90;;;;;;2080058;28;20116;-76
2022/08/21 02:34:52;;;;;;;29.73;18.00;;;17.50;99.90;;;;;;2081121;28;20022;-77
2022/08/21 02:35:53;;;;;;;25.13;16.75;;;17.50;99.90;;;;;;2081198;28;20025;-77
2022/08/21 02:36:53;;;;;;;27.38;17.63;;;17.50;99.90;;;;;;2081366;28;20087;-77
2022/08/21 02:37:57;;;;;;;30.88;18.02;;;17.50;99.90;;;;;;2081642;28;20025;-78
2022/08/21 02:38:58;;;;;;;24.17;16.38;;;17.50;99.90;;;;;;2081296;28;20041;-77
2022/08/21 02:40:00;;;;;;;35.17;20.55;;;17.50;99.90;;;;;;2081647;28;20633;-78
2022/08/21 02:41:01;;;;;;;32.95;20.48;;;17.50;99.90;;;;;;2083135;28;20034;-76
2022/08/21 02:42:02;;;;;;;31.77;20.70;;;17.50;99.90;;;;;;2083865;28;20053;-77
2022/08/21 02:43:05;;;;;;;31.48;20.85;;;17.50;99.90;;;;;;2084125;28;20116;-77
2022/08/21 02:44:05;;;;;;;34.97;21.13;;;17.50;99.90;;;;;;2076257;28;20038;-77
2022/08/21 02:45:07;;;;;;;35.25;20.58;;;17.50;99.90;;;;;;2084157;28;20124;-77
2022/08/21 02:46:11;;;;;;;29.80;20.02;;;17.50;99.90;;;;;;2084526;28;20381;-76
2022/08/21 02:47:13;;;;;;;29.83;19.33;;;17.50;99.90;;;;;;2083753;28;20128;-77
2022/08/21 02:48:19;;;;;;;35.30;21.83;;;17.50;99.90;;;;;;2074509;28;20030;-76
2022/08/21 02:49:19;;;;;;;33.67;20.45;;;17.50;99.90;;;;;;2072752;28;20101;-76
2022/08/21 02:50:27;;;;;;;29.40;19.77;;;17.50;99.90;;;;;;2080530;28;20036;-77
2022/08/21 02:51:28;;;;;;;28.70;18.92;;;17.50;99.90;;;;;;2081043;28;20105;-76
2022/08/21 02:52:29;;;;;;;29.88;19.33;;;17.50;99.90;;;;;;2073254;28;20072;-77
2022/08/21 02:53:31;;;;;;;31.38;19.15;;;17.50;99.90;;;;;;2081504;28;20029;-77
2022/08/21 02:54:31;;;;;;;29.55;18.90;;;17.50;99.90;;;;;;2081431;28;20030;-79
2022/08/21 02:55:35;;;;;;;30.65;19.42;;;17.50;99.90;;;;;;2080646;28;20025;-76
2022/08/21 02:56:36;;;;;;;29.92;19.48;;;17.50;99.90;;;;;;2080661;28;20029;-77
2022/08/21 02:57:37;;;;;;;34.40;20.73;;;17.50;99.90;;;;;;2080428;28;20040;-76
2022/08/21 02:58:41;;;;;;;33.35;20.67;;;17.60;99.90;;;;;;2079986;28;20040;-77
2022/08/21 02:59:42;;;;;;;34.47;20.70;;;17.60;99.90;;;;;;2080853;28;20033;-75
2022/08/21 03:00:43;;;;;;;35.80;21.58;;;17.60;99.90;;;;;;2065787;28;20023;-77
2022/08/21 03:01:44;;;;;;;35.22;21.95;;;17.60;99.90;;;;;;2072949;28;20080;-75
2022/08/21 03:02:46;;;;;;;37.13;21.90;;;17.60;99.90;;;;;;2080675;28;20436;-77
2022/08/21 03:03:50;;;;;;;32.67;21.50;;;17.60;99.90;;;;;;2080492;28;20121;-76
2022/08/21 03:04:51;;;;;;;33.63;21.45;;;17.60;99.90;;;;;;2080293;28;20033;-77
2022/08/21 03:05:52;;;;;;;31.75;21.52;;;17.60;99.90;;;;;;2080076;28;20033;-77
2022/08/21 03:06:52;;;;;;;36.67;23.15;;;17.60;99.90;;;;;;2071655;28;20022;-76
2022/08/21 03:07:53;;;;;;;36.35;22.08;;;17.60;99.90;;;;;;2080073;28;20518;-76
2022/08/21 03:08:54;;;;;;;32.40;21.80;;;17.50;99.90;;;;;;2088352;28;20096;-76
2022/08/21 03:09:55;;;;;;;36.97;22.75;;;17.60;99.90;;;;;;2080051;28;20055;-77
2022/08/21 03:10:56;;;;;;;32.95;21.27;;;17.60;99.90;;;;;;2072187;28;20045;-76
2022/08/21 03:11:57;;;;;;;36.97;22.85;;;17.60;99.90;;;;;;2063815;28;20027;-76
2022/08/21 03:12:58;;;;;;;33.92;21.90;;;17.60;99.90;;;;;;2071755;28;20034;-76
2022/08/21 03:13:59;;;;;;;30.60;20.77;;;17.60;99.90;;;;;;2071828;28;20025;-76
2022/08/21 03:14:59;;;;;;;30.73;20.55;;;17.60;99.90;;;;;;2079638;28;20026;-77
2022/08/21 03:16:00;;;;;;;30.02;20.00;;;17.60;99.90;;;;;;2080623;28;20053;-77
2022/08/21 03:17:01;;;;;;;34.63;21.58;;;17.60;99.90;;;;;;2080475;28;20140;-76
2022/08/21 03:18:04;;;;;;;33.55;21.52;;;17.60;99.90;;;;;;2079793;28;20044;-77
2022/08/21 03:19:05;;;;;;;34.97;21.55;;;17.60;99.90;;;;;;2071527;28;20132;-76
2022/08/21 03:20:07;;;;;;;34.60;22.05;;;17.60;99.90;;;;;;2074874;28;20026;-76
2022/08/21 03:21:08;;;;;;;38.63;22.25;;;17.60;99.90;;;;;;2080038;28;20135;-76
2022/08/21 03:22:09;;;;;;;36.13;22.08;;;17.60;99.90;;;;;;2071722;28;20467;-76
2022/08/21 03:23:09;;;;;;;32.65;21.33;;;17.60;99.90;;;;;;2079782;28;20033;-76
2022/08/21 03:24:10;;;;;;;29.67;20.60;;;17.60;99.90;;;;;;2079424;28;20052;-76
2022/08/21 03:25:11;;;;;;;31.60;20.98;;;17.60;99.90;;;;;;2080016;28;20124;-76
2022/08/21 03:26:12;;;;;;;35.80;21.40;;;17.60;99.90;;;;;;2079741;28;20029;-76
2022/08/21 03:27:12;;;;;;;30.50;20.25;;;17.60;99.90;;;;;;2071628;28;20120;-76
2022/08/21 03:28:16;;;;;;;36.33;22.17;;;17.60;99.90;;;;;;2080551;28;20030;-76
2022/08/21 03:29:17;;;;;;;35.58;21.55;;;17.50;99.90;;;;;;2082116;28;20041;-76
2022/08/21 03:30:19;;;;;;;36.92;21.00;;;17.60;99.90;;;;;;2081891;28;20029;-75
2022/08/21 03:31:21;;;;;;;31.42;20.13;;;17.60;99.90;;;;;;2085348;28;20096;-76
2022/08/21 03:32:22;;;;;;;35.00;20.83;;;17.60;99.90;;;;;;2085931;28;20080;-75
2022/08/21 03:33:23;;;;;;;27.40;19.38;;;17.60;99.90;;;;;;2086851;28;20097;-75
2022/08/21 03:34:24;;;;;;;30.02;20.38;;;17.60;99.90;;;;;;2086318;28;20094;-75
2022/08/21 03:35:26;;;;;;;74.45;34.70;;;17.60;99.90;;;;;;2084513;28;20028;-75
2022/08/21 03:36:26;;;;;;;79.15;36.28;;;17.50;99.90;;;;;;2076628;28;20089;-74
2022/08/21 03:37:27;;;;;;;119.70;41.88;;;17.50;99.90;;;;;;2075149;28;20030;-75
2022/08/21 03:38:30;;;;;;;53.50;33.33;;;17.50;99.90;;;;;;2074813;28;20033;-72
2022/08/21 03:39:31;;;;;;;59.30;33.38;;;17.50;99.90;;;;;;2074154;28;20508;-73
2022/08/21 03:40:31;;;;;;;63.35;34.20;;;17.50;99.90;;;;;;2081528;28;20029;-75
2022/08/21 03:41:32;;;;;;;57.40;32.45;;;17.50;99.90;;;;;;2081465;28;20045;-73
2022/08/21 03:42:33;;;;;;;63.30;33.00;;;17.50;99.90;;;;;;2081292;28;20036;-74
2022/08/21 03:43:34;;;;;;;54.50;30.23;;;17.50;99.90;;;;;;2081372;28;20747;-74
2022/08/21 03:44:35;;;;;;;49.75;28.75;;;17.50;99.90;;;;;;2081484;28;20384;-74
2022/08/21 03:45:37;;;;;;;54.08;28.88;;;17.50;99.90;;;;;;2081843;28;20068;-74
2022/08/21 03:46:37;;;;;;;45.05;26.92;;;17.50;99.90;;;;;;2081194;28;20092;-75
2022/08/21 03:47:38;;;;;;;51.42;28.50;;;17.50;99.90;;;;;;2081280;28;20120;-75
2022/08/21 03:48:38;;;;;;;55.25;30.90;;;17.50;99.90;;;;;;2081670;28;20056;-74
2022/08/21 03:49:41;;;;;;;51.45;29.27;;;17.50;99.90;;;;;;2080876;28;20025;-74
2022/08/21 03:50:43;;;;;;;52.75;29.05;;;17.50;99.90;;;;;;2065065;28;20057;-74
2022/08/21 03:51:43;;;;;;;52.47;28.27;;;17.50;99.90;;;;;;2073156;28;20101;-75
2022/08/21 03:52:44;;;;;;;51.63;26.77;;;17.60;99.90;;;;;;2081342;28;20460;-74
2022/08/21 03:53:45;;;;;;;46.70;26.50;;;17.50;99.90;;;;;;2081095;28;20026;-75
2022/08/21 03:54:46;;;;;;;46.42;25.65;;;17.60;99.90;;;;;;2081254;28;20021;-76
2022/08/21 03:55:49;;;;;;;53.33;27.40;;;17.60;99.90;;;;;;2081702;28;20025;-75
2022/08/21 03:56:49;;;;;;;43.63;24.50;;;17.60;99.90;;;;;;2081166;28;20111;-75
2022/08/21 03:57:50;;;;;;;46.03;24.92;;;17.60;99.90;;;;;;2073067;28;20029;-75
2022/08/21 03:58:51;;;;;;;47.13;25.15;;;17.60;99.90;;;;;;2080913;28;20487;-76
2022/08/21 03:59:51;;;;;;;45.40;25.10;;;17.60;99.90;;;;;;2081586;28;20719;-77
2022/08/21 04:00:56;;;;;;;46.03;24.67;;;17.60;99.90;;;;;;2082440;28;20091;-76
2022/08/21 04:02:00;;;;;;;39.35;22.83;;;17.60;99.90;;;;;;2083061;28;20052;-76
2022/08/21 04:03:01;;;;;;;46.13;24.15;;;17.60;99.90;;;;;;2074209;28;20037;-76
2022/08/21 04:04:03;;;;;;;36.95;22.77;;;17.60;99.90;;;;;;2074058;28;20117;-77
2022/08/21 04:05:04;;;;;;;39.17;23.77;;;17.60;99.90;;;;;;2081593;28;20095;-77
2022/08/21 04:06:05;;;;;;;40.92;23.73;;;17.60;99.90;;;;;;2082741;28;20041;-75
2022/08/21 04:07:06;;;;;;;40.47;23.58;;;17.60;99.90;;;;;;2074017;28;20034;-75
2022/08/21 04:08:08;;;;;;;45.70;26.15;;;17.60;99.90;;;;;;2073438;28;20106;-76
2022/08/21 04:09:08;;;;;;;44.03;25.98;;;17.60;99.90;;;;;;2082431;28;20103;-76
2022/08/21 04:10:09;;;;;;;50.25;28.17;;;17.70;99.90;;;;;;2082421;28;20029;-77
2022/08/21 04:11:10;;;;;;;60.42;31.50;;;17.70;99.90;;;;;;2082324;28;20021;-76
2022/08/21 04:12:10;;;;;;;53.33;31.33;;;17.70;99.90;;;;;;2081861;28;20026;-76
2022/08/21 04:13:11;;;;;;;70.15;35.60;;;17.70;99.90;;;;;;2073662;28;20040;-76
2022/08/21 04:14:14;;;;;;;62.97;33.78;;;17.70;99.90;;;;;;2065228;28;20521;-76
2022/08/21 04:15:14;;;;;;;61.38;32.08;;;17.60;99.90;;;;;;2073792;28;20084;-77
2022/08/21 04:16:15;;;;;;;58.53;31.73;;;17.60;99.90;;;;;;2081228;28;20042;-76
2022/08/21 04:17:16;;;;;;;51.08;29.27;;;17.60;99.90;;;;;;2081235;28;20079;-76
2022/08/21 04:18:17;;;;;;;47.53;28.05;;;17.60;99.90;;;;;;2072849;28;20084;-75
2022/08/21 04:19:18;;;;;;;48.58;27.52;;;17.60;99.90;;;;;;2081707;28;20369;-77
2022/08/21 04:20:21;;;;;;;49.63;27.98;;;17.60;99.90;;;;;;2081149;28;20044;-76
2022/08/21 04:21:23;;;;;;;47.85;25.92;;;17.60;99.90;;;;;;2081510;28;20089;-77
2022/08/21 04:22:23;;;;;;;53.90;27.58;;;17.60;99.90;;;;;;2082758;28;20021;-77
2022/08/21 04:23:25;;;;;;;48.47;26.08;;;17.60;99.90;;;;;;2082015;28;20620;-77
2022/08/21 04:24:26;;;;;;;46.03;25.20;;;17.60;99.90;;;;;;2082110;28;20064;-77
2022/08/21 04:25:26;;;;;;;47.30;25.15;;;17.60;99.90;;;;;;2081644;28;20049;-76
2022/08/21 04:26:27;;;;;;;41.03;23.75;;;17.60;99.90;;;;;;2073033;28;20041;-76
2022/08/21 04:27:28;;;;;;;39.70;23.65;;;17.50;99.90;;;;;;2081605;28;20029;-77
2022/08/21 04:28:28;;;;;;;40.50;24.42;;;17.50;99.90;;;;;;2081257;28;20021;-77
2022/08/21 04:29:29;;;;;;;37.15;22.80;;;17.50;99.90;;;;;;2073132;28;20038;-76
2022/08/21 04:30:30;;;;;;;38.38;23.23;;;17.50;99.90;;;;;;2064784;28;20033;-77
2022/08/21 04:31:30;;;;;;;35.50;22.52;;;17.50;99.90;;;;;;2073033;28;20467;-77
2022/08/21 04:32:31;;;;;;;48.13;26.58;;;17.50;99.90;;;;;;2081894;28;20460;-76
2022/08/21 04:33:32;;;;;;;46.08;25.95;;;17.50;99.90;;;;;;2081812;28;20029;-77
2022/08/21 04:34:32;;;;;;;47.97;28.05;;;17.50;99.90;;;;;;2080475;28;20152;-77
2022/08/21 04:35:33;;;;;;;46.22;26.98;;;17.50;99.90;;;;;;2072701;28;20045;-77
2022/08/21 04:36:33;;;;;;;45.88;27.40;;;17.50;99.90;;;;;;2081298;28;20030;-76
2022/08/21 04:37:35;;;;;;;44.85;26.50;;;17.50;99.90;;;;;;2081068;28;20447;-79
2022/08/21 04:38:35;;;;;;;45.47;26.17;;;17.50;99.90;;;;;;2080498;28;20052;-75
2022/08/21 04:39:36;;;;;;;43.63;25.52;;;17.50;99.90;;;;;;2081791;28;20091;-77
2022/08/21 04:40:37;;;;;;;45.42;25.33;;;17.50;99.90;;;;;;2082051;28;20037;-77
2022/08/21 04:41:37;;;;;;;43.38;24.33;;;17.50;99.90;;;;;;2082072;28;20037;-77
2022/08/21 04:42:44;;;;;;;40.35;23.85;;;17.60;99.90;;;;;;2081948;28;20116;-78
2022/08/21 04:43:44;;;;;;;36.08;22.17;;;17.60;99.90;;;;;;2081405;28;20102;-76
2022/08/21 04:44:47;;;;;;;38.22;21.60;;;17.60;99.90;;;;;;2072507;28;20640;-77
2022/08/21 04:45:50;;;;;;;33.17;21.58;;;17.60;99.90;;;;;;2073188;28;20043;-77
2022/08/21 04:46:50;;;;;;;36.67;22.27;;;17.60;99.90;;;;;;2081671;28;20571;-76
2022/08/21 04:47:56;;;;;;;33.95;21.10;;;17.60;99.90;;;;;;2082992;28;20033;-77
2022/08/21 04:48:57;;;;;;;36.17;21.75;;;17.60;99.90;;;;;;2081637;28;20537;-77
2022/08/21 04:49:57;;;;;;;39.15;22.20;;;17.60;99.90;;;;;;2081414;28;20022;-77
2022/08/21 04:51:19;;;;;;;39.13;22.65;;;17.60;99.90;;;;;;2081202;28;20033;-77
2022/08/21 04:52:22;;;;;;;34.38;20.67;;;17.60;99.90;;;;;;2082156;28;20076;-77
2022/08/21 04:53:52;;;;;;;31.27;20.73;;;17.60;99.90;;;;;;2083095;28;20530;-77
2022/08/21 04:54:52;;;;;;;34.17;21.27;;;17.60;99.90;;;;;;2079697;28;20095;-77
2022/08/21 04:55:56;;;;;;;40.00;21.90;;;17.60;99.90;;;;;;2073947;28;20026;-77
2022/08/21 04:57:05;;;;;;;32.97;20.90;;;17.60;99.90;;;;;;2074062;28;20412;-77
2022/08/21 04:58:07;;;;;;;34.38;20.98;;;17.70;99.90;;;;;;2081821;28;20040;-77
2022/08/21 04:59:16;;;;;;;34.60;21.27;;;17.70;99.90;;;;;;2082094;28;20041;-77
2022/08/21 05:00:18;;;;;;;35.53;21.90;;;17.70;99.90;;;;;;2081984;28;20033;-76
2022/08/21 05:01:23;;;;;;;36.42;22.48;;;17.70;99.90;;;;;;2081726;28;20152;-77
2022/08/21 05:02:24;;;;;;;37.75;22.38;;;17.70;99.90;;;;;;2081253;28;20025;-77
2022/08/21 05:03:25;;;;;;;38.42;22.48;;;17.70;99.90;;;;;;2072691;28;20040;-76
2022/08/21 05:04:30;;;;;;;42.28;23.27;;;17.70;99.90;;;;;;2064240;28;20856;-77
2022/08/21 05:05:30;;;;;;;40.08;23.20;;;17.70;99.90;;;;;;2072770;28;20488;-77
2022/08/21 05:06:35;;;;;;;35.75;22.65;;;17.70;99.90;;;;;;2081315;28;20044;-77
2022/08/21 05:07:36;;;;;;;38.78;23.42;;;17.70;99.90;;;;;;2081063;28;20105;-77
2022/08/21 05:08:39;;;;;;;43.25;24.70;;;17.70;99.90;;;;;;2080891;28;20075;-76
2022/08/21 05:09:40;;;;;;;43.30;24.85;;;17.80;99.90;;;;;;2081778;28;20017;-77
2022/08/21 05:10:44;;;;;;;38.55;23.83;;;17.80;99.90;;;;;;2081722;28;20030;-77
2022/08/21 05:11:45;;;;;;;36.80;22.58;;;17.80;99.90;;;;;;2073168;28;20680;-76
2022/08/21 05:12:46;;;;;;;40.63;22.88;;;17.80;99.90;;;;;;2065033;28;20034;-77
2022/08/21 05:13:46;;;;;;;33.40;21.80;;;17.80;99.90;;;;;;2081475;28;20049;-77